sensor_id;sensor_type;location;lat;lon;timestamp;P1;durP1;ratioP1;P2;durP2;ratioP2
62554;SDS011;48610;52.144;8.624;2024-01-25T00:01:40;15.77;;;3.65;;
62554;SDS011;48610;52.144;8.624;2024-01-25T00:04:41;13.70;;;3.50;;
62554;SDS011;48610;52.144;8.624;2024-01-25T00:07:45;16.27;;;3.85;;
62554;SDS011;48610;52.144;8.624;2024-01-25T00:10:46;19.52;;;3.47;;
62554;SDS011;48610;52.144;8.624;2024-01-25T00:13:47;17.05;;;3.72;;
62554;SDS011;48610;52.144;8.624;2024-01-25T00:16:48;10.63;;;3.03;;
62554;SDS011;48610;52.144;8.624;2024-01-25T00:19:48;16.83;;;3.30;;
62554;SDS011;48610;52.144;8.624;2024-01-25T00:22:49;23.02;;;4.00;;
62554;SDS011;48610;52.144;8.624;2024-01-25T00:25:49;20.52;;;5.28;;
62554;SDS011;48610;52.144;8.624;2024-01-25T00:28:50;23.15;;;4.35;;
62554;SDS011;48610;52.144;8.624;2024-01-25T00:31:50;8.05;;;2.50;;
62554;SDS011;48610;52.144;8.624;2024-01-25T00:34:51;9.05;;;2.05;;
62554;SDS011;48610;52.144;8.624;2024-01-25T00:37:52;18.20;;;3.40;;
62554;SDS011;48610;52.144;8.624;2024-01-25T00:40:52;23.40;;;4.57;;
62554;SDS011;48610;52.144;8.624;2024-01-25T00:43:53;8.70;;;2.28;;
62554;SDS011;48610;52.144;8.624;2024-01-25T00:46:54;10.52;;;2.30;;
62554;SDS011;48610;52.144;8.624;2024-01-25T00:49:55;17.27;;;3.58;;
62554;SDS011;48610;52.144;8.624;2024-01-25T00:52:56;28.98;;;4.53;;
62554;SDS011;48610;52.144;8.624;2024-01-25T00:55:57;12.70;;;3.13;;
62554;SDS011;48610;52.144;8.624;2024-01-25T00:58:58;20.67;;;3.45;;
62554;SDS011;48610;52.144;8.624;2024-01-25T01:01:59;26.33;;;5.03;;
62554;SDS011;48610;52.144;8.624;2024-01-25T01:05:02;15.70;;;4.07;;
62554;SDS011;48610;52.144;8.624;2024-01-25T01:08:03;18.70;;;3.42;;
62554;SDS011;48610;52.144;8.624;2024-01-25T01:11:04;12.93;;;2.88;;
62554;SDS011;48610;52.144;8.624;2024-01-25T01:14:05;24.90;;;4.85;;
62554;SDS011;48610;52.144;8.624;2024-01-25T01:17:05;21.15;;;3.17;;
62554;SDS011;48610;52.144;8.624;2024-01-25T01:20:06;19.60;;;4.00;;
62554;SDS011;48610;52.144;8.624;2024-01-25T01:23:07;21.50;;;3.85;;
62554;SDS011;48610;52.144;8.624;2024-01-25T01:26:07;25.55;;;3.47;;
62554;SDS011;48610;52.144;8.624;2024-01-25T01:29:08;14.07;;;2.97;;
62554;SDS011;48610;52.144;8.624;2024-01-25T01:32:08;13.80;;;3.30;;
62554;SDS011;48610;52.144;8.624;2024-01-25T01:35:09;17.92;;;3.47;;
62554;SDS011;48610;52.144;8.624;2024-01-25T01:38:10;17.00;;;3.38;;
62554;SDS011;48610;52.144;8.624;2024-01-25T01:41:10;20.08;;;4.18;;
62554;SDS011;48610;52.144;8.624;2024-01-25T01:44:12;14.57;;;3.63;;
62554;SDS011;48610;52.144;8.624;2024-01-25T01:47:13;18.75;;;3.45;;
62554;SDS011;48610;52.144;8.624;2024-01-25T01:50:13;22.75;;;3.78;;
62554;SDS011;48610;52.144;8.624;2024-01-25T01:53:14;12.02;;;3.15;;
62554;SDS011;48610;52.144;8.624;2024-01-25T01:56:16;18.75;;;4.40;;
62554;SDS011;48610;52.144;8.624;2024-01-25T01:59:17;18.70;;;3.38;;
62554;SDS011;48610;52.144;8.624;2024-01-25T02:02:17;19.17;;;4.32;;
62554;SDS011;48610;52.144;8.624;2024-01-25T02:05:18;14.70;;;3.60;;
62554;SDS011;48610;52.144;8.624;2024-01-25T02:08:19;13.10;;;3.53;;
62554;SDS011;48610;52.144;8.624;2024-01-25T02:11:19;13.07;;;4.13;;
62554;SDS011;48610;52.144;8.624;2024-01-25T02:14:20;23.45;;;3.97;;
62554;SDS011;48610;52.144;8.624;2024-01-25T02:17:21;22.95;;;4.35;;
62554;SDS011;48610;52.144;8.624;2024-01-25T02:20:21;19.15;;;4.28;;
62554;SDS011;48610;52.144;8.624;2024-01-25T02:23:22;23.80;;;3.95;;
62554;SDS011;48610;52.144;8.624;2024-01-25T02:26:22;17.02;;;3.65;;
62554;SDS011;48610;52.144;8.624;2024-01-25T02:29:23;11.82;;;3.75;;
62554;SDS011;48610;52.144;8.624;2024-01-25T02:32:23;18.50;;;2.97;;
62554;SDS011;48610;52.144;8.624;2024-01-25T02:35:24;17.30;;;3.28;;
62554;SDS011;48610;52.144;8.624;2024-01-25T02:38:24;24.45;;;4.05;;
62554;SDS011;48610;52.144;8.624;2024-01-25T02:41:25;17.80;;;4.70;;
62554;SDS011;48610;52.144;8.624;2024-01-25T02:44:28;15.43;;;3.15;;
62554;SDS011;48610;52.144;8.624;2024-01-25T02:47:29;18.60;;;3.28;;
62554;SDS011;48610;52.144;8.624;2024-01-25T02:50:29;12.27;;;3.38;;
62554;SDS011;48610;52.144;8.624;2024-01-25T02:53:30;25.02;;;4.15;;
62554;SDS011;48610;52.144;8.624;2024-01-25T02:56:30;12.23;;;3.08;;
62554;SDS011;48610;52.144;8.624;2024-01-25T02:59:34;11.60;;;2.75;;
62554;SDS011;48610;52.144;8.624;2024-01-25T03:02:35;13.40;;;3.05;;
62554;SDS011;48610;52.144;8.624;2024-01-25T03:05:35;10.82;;;2.95;;
62554;SDS011;48610;52.144;8.624;2024-01-25T03:08:36;25.08;;;4.00;;
62554;SDS011;48610;52.144;8.624;2024-01-25T03:11:37;18.08;;;3.40;;
62554;SDS011;48610;52.144;8.624;2024-01-25T03:14:37;17.40;;;4.15;;
62554;SDS011;48610;52.144;8.624;2024-01-25T03:17:38;9.75;;;3.22;;
62554;SDS011;48610;52.144;8.624;2024-01-25T03:20:38;17.48;;;4.18;;
62554;SDS011;48610;52.144;8.624;2024-01-25T03:23:39;17.92;;;3.88;;
62554;SDS011;48610;52.144;8.624;2024-01-25T03:26:39;5.22;;;1.77;;
62554;SDS011;48610;52.144;8.624;2024-01-25T03:29:40;18.73;;;3.30;;
62554;SDS011;48610;52.144;8.624;2024-01-25T03:32:42;17.30;;;3.50;;
62554;SDS011;48610;52.144;8.624;2024-01-25T03:35:43;12.73;;;3.67;;
62554;SDS011;48610;52.144;8.624;2024-01-25T03:38:43;9.05;;;2.70;;
62554;SDS011;48610;52.144;8.624;2024-01-25T03:41:44;17.50;;;3.67;;
62554;SDS011;48610;52.144;8.624;2024-01-25T03:44:44;11.20;;;2.88;;
62554;SDS011;48610;52.144;8.624;2024-01-25T03:47:46;11.30;;;3.97;;
62554;SDS011;48610;52.144;8.624;2024-01-25T03:50:46;12.85;;;4.03;;
62554;SDS011;48610;52.144;8.624;2024-01-25T03:53:47;20.75;;;3.88;;
62554;SDS011;48610;52.144;8.624;2024-01-25T03:56:48;15.60;;;3.40;;
62554;SDS011;48610;52.144;8.624;2024-01-25T03:59:48;16.02;;;3.88;;
62554;SDS011;48610;52.144;8.624;2024-01-25T04:02:49;16.45;;;3.72;;
62554;SDS011;48610;52.144;8.624;2024-01-25T04:05:49;19.95;;;3.78;;
62554;SDS011;48610;52.144;8.624;2024-01-25T04:08:50;21.17;;;3.95;;
62554;SDS011;48610;52.144;8.624;2024-01-25T04:11:50;10.13;;;3.17;;
62554;SDS011;48610;52.144;8.624;2024-01-25T04:14:51;8.25;;;2.58;;
62554;SDS011;48610;52.144;8.624;2024-01-25T04:17:51;20.95;;;3.25;;
62554;SDS011;48610;52.144;8.624;2024-01-25T04:20:53;15.50;;;3.75;;
62554;SDS011;48610;52.144;8.624;2024-01-25T04:23:53;22.10;;;4.53;;
62554;SDS011;48610;52.144;8.624;2024-01-25T04:26:54;18.95;;;3.38;;
62554;SDS011;48610;52.144;8.624;2024-01-25T04:29:54;24.42;;;3.58;;
62554;SDS011;48610;52.144;8.624;2024-01-25T04:32:55;8.93;;;2.97;;
62554;SDS011;48610;52.144;8.624;2024-01-25T04:35:55;13.65;;;3.13;;
62554;SDS011;48610;52.144;8.624;2024-01-25T04:38:56;22.08;;;3.55;;
62554;SDS011;48610;52.144;8.624;2024-01-25T04:41:56;12.98;;;3.00;;
62554;SDS011;48610;52.144;8.624;2024-01-25T04:44:57;24.42;;;3.80;;
62554;SDS011;48610;52.144;8.624;2024-01-25T04:47:57;7.35;;;2.05;;
62554;SDS011;48610;52.144;8.624;2024-01-25T04:50:58;18.95;;;3.72;;
62554;SDS011;48610;52.144;8.624;2024-01-25T04:53:59;22.02;;;4.45;;
62554;SDS011;48610;52.144;8.624;2024-01-25T04:56:59;22.08;;;3.10;;
62554;SDS011;48610;52.144;8.624;2024-01-25T05:00:00;10.20;;;1.65;;
62554;SDS011;48610;52.144;8.624;2024-01-25T05:03:01;10.40;;;2.38;;
62554;SDS011;48610;52.144;8.624;2024-01-25T05:06:01;20.83;;;3.63;;
62554;SDS011;48610;52.144;8.624;2024-01-25T05:09:02;13.02;;;3.38;;
62554;SDS011;48610;52.144;8.624;2024-01-25T05:12:03;13.68;;;3.42;;
62554;SDS011;48610;52.144;8.624;2024-01-25T05:15:04;25.45;;;4.30;;
62554;SDS011;48610;52.144;8.624;2024-01-25T05:18:05;16.17;;;3.33;;
62554;SDS011;48610;52.144;8.624;2024-01-25T05:21:06;9.85;;;2.65;;
62554;SDS011;48610;52.144;8.624;2024-01-25T05:24:07;19.00;;;3.72;;
62554;SDS011;48610;52.144;8.624;2024-01-25T05:27:09;20.88;;;3.83;;
62554;SDS011;48610;52.144;8.624;2024-01-25T05:30:10;35.60;;;4.65;;
62554;SDS011;48610;52.144;8.624;2024-01-25T05:33:11;13.98;;;3.30;;
62554;SDS011;48610;52.144;8.624;2024-01-25T05:36:11;15.98;;;3.30;;
62554;SDS011;48610;52.144;8.624;2024-01-25T05:39:14;9.05;;;3.47;;
62554;SDS011;48610;52.144;8.624;2024-01-25T05:42:15;29.35;;;4.80;;
62554;SDS011;48610;52.144;8.624;2024-01-25T05:45:15;7.80;;;2.78;;
62554;SDS011;48610;52.144;8.624;2024-01-25T05:48:19;17.48;;;4.00;;
62554;SDS011;48610;52.144;8.624;2024-01-25T05:51:20;18.55;;;4.30;;
62554;SDS011;48610;52.144;8.624;2024-01-25T05:54:20;24.98;;;3.97;;
62554;SDS011;48610;52.144;8.624;2024-01-25T05:57:21;16.38;;;4.38;;
62554;SDS011;48610;52.144;8.624;2024-01-25T06:00:21;8.15;;;3.35;;
62554;SDS011;48610;52.144;8.624;2024-01-25T06:03:22;24.88;;;4.13;;
62554;SDS011;48610;52.144;8.624;2024-01-25T06:06:23;16.75;;;3.72;;
62554;SDS011;48610;52.144;8.624;2024-01-25T06:09:23;15.95;;;3.00;;
62554;SDS011;48610;52.144;8.624;2024-01-25T06:12:27;11.45;;;3.50;;
62554;SDS011;48610;52.144;8.624;2024-01-25T06:15:28;6.60;;;1.63;;
62554;SDS011;48610;52.144;8.624;2024-01-25T06:18:28;15.77;;;3.90;;
62554;SDS011;48610;52.144;8.624;2024-01-25T06:21:29;15.10;;;3.78;;
62554;SDS011;48610;52.144;8.624;2024-01-25T06:24:29;18.08;;;3.78;;
62554;SDS011;48610;52.144;8.624;2024-01-25T06:27:30;19.02;;;3.60;;
62554;SDS011;48610;52.144;8.624;2024-01-25T06:30:30;17.02;;;4.15;;
62554;SDS011;48610;52.144;8.624;2024-01-25T06:33:31;20.75;;;2.28;;
62554;SDS011;48610;52.144;8.624;2024-01-25T06:36:31;23.73;;;3.13;;
62554;SDS011;48610;52.144;8.624;2024-01-25T06:39:32;22.77;;;4.45;;
62554;SDS011;48610;52.144;8.624;2024-01-25T06:42:34;16.15;;;2.85;;
62554;SDS011;48610;52.144;8.624;2024-01-25T06:45:34;27.35;;;3.47;;
62554;SDS011;48610;52.144;8.624;2024-01-25T06:48:35;13.48;;;3.50;;
62554;SDS011;48610;52.144;8.624;2024-01-25T06:51:36;21.50;;;3.85;;
62554;SDS011;48610;52.144;8.624;2024-01-25T06:54:36;20.25;;;3.60;;
62554;SDS011;48610;52.144;8.624;2024-01-25T06:57:38;24.42;;;4.18;;
62554;SDS011;48610;52.144;8.624;2024-01-25T07:00:39;12.93;;;2.78;;
62554;SDS011;48610;52.144;8.624;2024-01-25T07:03:41;21.73;;;3.45;;
62554;SDS011;48610;52.144;8.624;2024-01-25T07:06:42;16.58;;;4.15;;
62554;SDS011;48610;52.144;8.624;2024-01-25T07:09:43;24.95;;;4.45;;
62554;SDS011;48610;52.144;8.624;2024-01-25T07:12:43;24.10;;;3.60;;
62554;SDS011;48610;52.144;8.624;2024-01-25T07:15:44;19.80;;;3.50;;
62554;SDS011;48610;52.144;8.624;2024-01-25T07:18:44;22.13;;;3.80;;
62554;SDS011;48610;52.144;8.624;2024-01-25T07:21:45;18.77;;;4.07;;
62554;SDS011;48610;52.144;8.624;2024-01-25T07:24:45;22.58;;;4.45;;
62554;SDS011;48610;52.144;8.624;2024-01-25T07:27:46;22.00;;;3.67;;
62554;SDS011;48610;52.144;8.624;2024-01-25T07:30:47;3.50;;;1.90;;
62554;SDS011;48610;52.144;8.624;2024-01-25T07:33:48;13.98;;;3.33;;
62554;SDS011;48610;52.144;8.624;2024-01-25T07:36:48;23.80;;;4.65;;
62554;SDS011;48610;52.144;8.624;2024-01-25T07:39:49;16.48;;;3.75;;
62554;SDS011;48610;52.144;8.624;2024-01-25T07:42:49;23.05;;;3.85;;
62554;SDS011;48610;52.144;8.624;2024-01-25T07:45:50;18.85;;;3.90;;
62554;SDS011;48610;52.144;8.624;2024-01-25T07:48:50;25.27;;;3.75;;
62554;SDS011;48610;52.144;8.624;2024-01-25T07:51:51;19.23;;;3.60;;
62554;SDS011;48610;52.144;8.624;2024-01-25T07:54:51;23.40;;;3.90;;
62554;SDS011;48610;52.144;8.624;2024-01-25T07:57:53;11.60;;;3.00;;
62554;SDS011;48610;52.144;8.624;2024-01-25T08:00:53;19.92;;;3.45;;
62554;SDS011;48610;52.144;8.624;2024-01-25T08:03:54;8.45;;;3.55;;
62554;SDS011;48610;52.144;8.624;2024-01-25T08:06:55;21.75;;;4.32;;
62554;SDS011;48610;52.144;8.624;2024-01-25T08:09:56;5.85;;;1.55;;
62554;SDS011;48610;52.144;8.624;2024-01-25T08:12:58;23.98;;;3.97;;
62554;SDS011;48610;52.144;8.624;2024-01-25T08:15:59;29.45;;;4.53;;
62554;SDS011;48610;52.144;8.624;2024-01-25T08:18:59;21.55;;;4.70;;
62554;SDS011;48610;52.144;8.624;2024-01-25T08:22:00;25.13;;;4.75;;
62554;SDS011;48610;52.144;8.624;2024-01-25T08:25:01;18.77;;;3.92;;
62554;SDS011;48610;52.144;8.624;2024-01-25T08:28:01;21.00;;;4.50;;
62554;SDS011;48610;52.144;8.624;2024-01-25T08:31:02;26.92;;;4.80;;
62554;SDS011;48610;52.144;8.624;2024-01-25T08:34:02;24.63;;;5.10;;
62554;SDS011;48610;52.144;8.624;2024-01-25T08:37:03;18.90;;;5.03;;
62554;SDS011;48610;52.144;8.624;2024-01-25T08:40:04;25.05;;;4.95;;
62554;SDS011;48610;52.144;8.624;2024-01-25T08:43:06;17.88;;;4.40;;
62554;SDS011;48610;52.144;8.624;2024-01-25T08:46:07;15.90;;;3.72;;
62554;SDS011;48610;52.144;8.624;2024-01-25T08:49:08;15.18;;;4.55;;
62554;SDS011;48610;52.144;8.624;2024-01-25T08:52:10;13.25;;;3.63;;
62554;SDS011;48610;52.144;8.624;2024-01-25T08:55:10;23.60;;;4.22;;
62554;SDS011;48610;52.144;8.624;2024-01-25T08:58:11;22.25;;;4.20;;
62554;SDS011;48610;52.144;8.624;2024-01-25T09:01:11;35.22;;;4.82;;
62554;SDS011;48610;52.144;8.624;2024-01-25T09:04:12;17.58;;;4.20;;
62554;SDS011;48610;52.144;8.624;2024-01-25T09:07:13;23.50;;;4.88;;
62554;SDS011;48610;52.144;8.624;2024-01-25T09:10:13;17.70;;;3.25;;
62554;SDS011;48610;52.144;8.624;2024-01-25T09:13:14;17.30;;;4.35;;
62554;SDS011;48610;52.144;8.624;2024-01-25T09:16:15;17.25;;;3.95;;
62554;SDS011;48610;52.144;8.624;2024-01-25T09:19:16;20.67;;;4.22;;
62554;SDS011;48610;52.144;8.624;2024-01-25T09:22:17;12.70;;;4.13;;
62554;SDS011;48610;52.144;8.624;2024-01-25T09:25:19;18.98;;;4.13;;
62554;SDS011;48610;52.144;8.624;2024-01-25T09:28:20;19.75;;;4.55;;
62554;SDS011;48610;52.144;8.624;2024-01-25T09:31:20;31.20;;;5.18;;
62554;SDS011;48610;52.144;8.624;2024-01-25T09:34:21;16.98;;;3.90;;
62554;SDS011;48610;52.144;8.624;2024-01-25T09:37:21;19.02;;;4.32;;
62554;SDS011;48610;52.144;8.624;2024-01-25T09:40:24;18.63;;;4.07;;
62554;SDS011;48610;52.144;8.624;2024-01-25T09:43:25;22.95;;;4.38;;
62554;SDS011;48610;52.144;8.624;2024-01-25T09:46:25;23.25;;;5.03;;
62554;SDS011;48610;52.144;8.624;2024-01-25T09:49:27;18.80;;;4.57;;
62554;SDS011;48610;52.144;8.624;2024-01-25T09:52:27;23.35;;;5.13;;
62554;SDS011;48610;52.144;8.624;2024-01-25T09:55:29;15.68;;;3.58;;
62554;SDS011;48610;52.144;8.624;2024-01-25T09:58:39;17.83;;;3.33;;
62554;SDS011;48610;52.144;8.624;2024-01-25T10:01:45;27.85;;;4.43;;
62554;SDS011;48610;52.144;8.624;2024-01-25T10:04:51;22.30;;;4.50;;
62554;SDS011;48610;52.144;8.624;2024-01-25T10:07:52;22.77;;;4.53;;
62554;SDS011;48610;52.144;8.624;2024-01-25T10:10:52;22.83;;;4.57;;
62554;SDS011;48610;52.144;8.624;2024-01-25T10:13:53;9.05;;;2.42;;
62554;SDS011;48610;52.144;8.624;2024-01-25T10:16:57;13.05;;;4.13;;
62554;SDS011;48610;52.144;8.624;2024-01-25T10:19:58;9.73;;;3.08;;
62554;SDS011;48610;52.144;8.624;2024-01-25T10:22:59;23.77;;;4.22;;
62554;SDS011;48610;52.144;8.624;2024-01-25T10:25:59;28.52;;;3.47;;
62554;SDS011;48610;52.144;8.624;2024-01-25T10:29:00;22.30;;;4.53;;
62554;SDS011;48610;52.144;8.624;2024-01-25T10:32:02;33.78;;;5.78;;
62554;SDS011;48610;52.144;8.624;2024-01-25T10:35:03;22.73;;;4.28;;
62554;SDS011;48610;52.144;8.624;2024-01-25T10:38:04;18.33;;;4.07;;
62554;SDS011;48610;52.144;8.624;2024-01-25T10:41:05;21.25;;;4.30;;
62554;SDS011;48610;52.144;8.624;2024-01-25T10:44:06;15.05;;;3.38;;
62554;SDS011;48610;52.144;8.624;2024-01-25T10:47:07;14.10;;;3.63;;
62554;SDS011;48610;52.144;8.624;2024-01-25T10:50:07;23.05;;;4.47;;
62554;SDS011;48610;52.144;8.624;2024-01-25T10:53:11;20.65;;;4.75;;
62554;SDS011;48610;52.144;8.624;2024-01-25T10:56:12;15.60;;;4.00;;
62554;SDS011;48610;52.144;8.624;2024-01-25T10:59:13;19.52;;;4.45;;
62554;SDS011;48610;52.144;8.624;2024-01-25T11:02:18;25.10;;;4.57;;
62554;SDS011;48610;52.144;8.624;2024-01-25T11:05:19;32.67;;;4.40;;
62554;SDS011;48610;52.144;8.624;2024-01-25T11:08:20;28.48;;;5.30;;
62554;SDS011;48610;52.144;8.624;2024-01-25T11:11:21;27.25;;;5.03;;
62554;SDS011;48610;52.144;8.624;2024-01-25T11:14:24;11.52;;;3.20;;
62554;SDS011;48610;52.144;8.624;2024-01-25T11:17:25;17.48;;;4.63;;
62554;SDS011;48610;52.144;8.624;2024-01-25T11:20:27;21.75;;;5.30;;
62554;SDS011;48610;52.144;8.624;2024-01-25T11:23:31;27.75;;;4.60;;
62554;SDS011;48610;52.144;8.624;2024-01-25T11:26:32;20.48;;;4.90;;
62554;SDS011;48610;52.144;8.624;2024-01-25T11:29:33;24.73;;;5.03;;
62554;SDS011;48610;52.144;8.624;2024-01-25T11:32:33;25.90;;;5.70;;
62554;SDS011;48610;52.144;8.624;2024-01-25T11:35:34;32.85;;;5.03;;
62554;SDS011;48610;52.144;8.624;2024-01-25T11:38:36;26.55;;;5.53;;
62554;SDS011;48610;52.144;8.624;2024-01-25T11:41:37;21.98;;;4.47;;
62554;SDS011;48610;52.144;8.624;2024-01-25T11:44:37;23.80;;;5.38;;
62554;SDS011;48610;52.144;8.624;2024-01-25T11:47:39;22.30;;;5.03;;
62554;SDS011;48610;52.144;8.624;2024-01-25T11:50:41;21.33;;;4.30;;
62554;SDS011;48610;52.144;8.624;2024-01-25T11:53:41;15.93;;;4.25;;
62554;SDS011;48610;52.144;8.624;2024-01-25T11:56:42;21.80;;;5.18;;
62554;SDS011;48610;52.144;8.624;2024-01-25T11:59:43;14.65;;;4.63;;
62554;SDS011;48610;52.144;8.624;2024-01-25T12:02:45;16.80;;;5.13;;
62554;SDS011;48610;52.144;8.624;2024-01-25T12:05:46;22.98;;;4.55;;
62554;SDS011;48610;52.144;8.624;2024-01-25T12:08:47;21.92;;;4.47;;
62554;SDS011;48610;52.144;8.624;2024-01-25T12:11:51;19.75;;;4.28;;
62554;SDS011;48610;52.144;8.624;2024-01-25T12:14:56;19.17;;;5.07;;
62554;SDS011;48610;52.144;8.624;2024-01-25T12:17:58;15.70;;;4.05;;
62554;SDS011;48610;52.144;8.624;2024-01-25T12:20:59;8.80;;;3.92;;
62554;SDS011;48610;52.144;8.624;2024-01-25T12:24:01;24.77;;;4.53;;
62554;SDS011;48610;52.144;8.624;2024-01-25T12:27:02;15.90;;;3.97;;
62554;SDS011;48610;52.144;8.624;2024-01-25T12:30:03;12.98;;;3.55;;
62554;SDS011;48610;52.144;8.624;2024-01-25T12:33:04;25.23;;;4.50;;
62554;SDS011;48610;52.144;8.624;2024-01-25T12:36:04;14.88;;;3.92;;
62554;SDS011;48610;52.144;8.624;2024-01-25T12:39:05;16.23;;;3.83;;
62554;SDS011;48610;52.144;8.624;2024-01-25T12:42:06;25.33;;;4.38;;
62554;SDS011;48610;52.144;8.624;2024-01-25T12:45:07;20.25;;;4.40;;
62554;SDS011;48610;52.144;8.624;2024-01-25T12:48:09;21.02;;;3.60;;
62554;SDS011;48610;52.144;8.624;2024-01-25T12:51:09;21.88;;;4.97;;
62554;SDS011;48610;52.144;8.624;2024-01-25T12:54:10;27.05;;;5.18;;
62554;SDS011;48610;52.144;8.624;2024-01-25T12:57:11;26.48;;;5.20;;
62554;SDS011;48610;52.144;8.624;2024-01-25T13:00:11;16.75;;;3.72;;
62554;SDS011;48610;52.144;8.624;2024-01-25T13:03:12;23.33;;;4.70;;
62554;SDS011;48610;52.144;8.624;2024-01-25T13:06:13;14.65;;;4.15;;
62554;SDS011;48610;52.144;8.624;2024-01-25T13:09:14;23.27;;;4.15;;
62554;SDS011;48610;52.144;8.624;2024-01-25T13:12:15;17.65;;;4.57;;
62554;SDS011;48610;52.144;8.624;2024-01-25T13:15:16;17.02;;;3.80;;
62554;SDS011;48610;52.144;8.624;2024-01-25T13:18:16;16.38;;;3.83;;
62554;SDS011;48610;52.144;8.624;2024-01-25T13:21:17;22.73;;;4.40;;
62554;SDS011;48610;52.144;8.624;2024-01-25T13:24:18;21.20;;;4.47;;
62554;SDS011;48610;52.144;8.624;2024-01-25T13:27:18;14.30;;;4.00;;
62554;SDS011;48610;52.144;8.624;2024-01-25T13:30:19;23.60;;;4.63;;
62554;SDS011;48610;52.144;8.624;2024-01-25T13:33:19;16.80;;;4.93;;
62554;SDS011;48610;52.144;8.624;2024-01-25T13:36:20;23.25;;;4.63;;
62554;SDS011;48610;52.144;8.624;2024-01-25T13:39:20;18.58;;;4.28;;
62554;SDS011;48610;52.144;8.624;2024-01-25T13:42:21;18.92;;;4.35;;
62554;SDS011;48610;52.144;8.624;2024-01-25T13:45:22;21.30;;;4.95;;
62554;SDS011;48610;52.144;8.624;2024-01-25T13:48:23;28.20;;;5.95;;
62554;SDS011;48610;52.144;8.624;2024-01-25T13:51:23;20.33;;;5.57;;
62554;SDS011;48610;52.144;8.624;2024-01-25T13:54:24;25.13;;;5.43;;
62554;SDS011;48610;52.144;8.624;2024-01-25T13:57:25;27.15;;;5.30;;
62554;SDS011;48610;52.144;8.624;2024-01-25T14:00:25;25.67;;;4.65;;
62554;SDS011;48610;52.144;8.624;2024-01-25T14:03:27;26.08;;;4.85;;
62554;SDS011;48610;52.144;8.624;2024-01-25T14:06:28;29.13;;;5.43;;
62554;SDS011;48610;52.144;8.624;2024-01-25T14:09:28;24.23;;;4.97;;
62554;SDS011;48610;52.144;8.624;2024-01-25T14:12:31;21.38;;;5.28;;
62554;SDS011;48610;52.144;8.624;2024-01-25T14:15:32;25.48;;;5.22;;
62554;SDS011;48610;52.144;8.624;2024-01-25T14:18:36;18.17;;;4.18;;
62554;SDS011;48610;52.144;8.624;2024-01-25T14:21:37;23.10;;;5.03;;
62554;SDS011;48610;52.144;8.624;2024-01-25T14:24:38;31.73;;;5.72;;
62554;SDS011;48610;52.144;8.624;2024-01-25T14:27:38;21.92;;;4.78;;
62554;SDS011;48610;52.144;8.624;2024-01-25T14:30:39;19.55;;;5.38;;
62554;SDS011;48610;52.144;8.624;2024-01-25T14:33:39;17.02;;;5.47;;
62554;SDS011;48610;52.144;8.624;2024-01-25T14:36:40;23.73;;;5.03;;
62554;SDS011;48610;52.144;8.624;2024-01-25T14:39:41;25.83;;;5.40;;
62554;SDS011;48610;52.144;8.624;2024-01-25T14:42:42;19.25;;;5.20;;
62554;SDS011;48610;52.144;8.624;2024-01-25T14:45:42;17.70;;;4.40;;
62554;SDS011;48610;52.144;8.624;2024-01-25T14:48:43;21.35;;;5.05;;
62554;SDS011;48610;52.144;8.624;2024-01-25T14:51:43;28.63;;;5.65;;
62554;SDS011;48610;52.144;8.624;2024-01-25T14:54:44;16.98;;;5.03;;
62554;SDS011;48610;52.144;8.624;2024-01-25T14:57:44;17.08;;;5.53;;
62554;SDS011;48610;52.144;8.624;2024-01-25T15:00:45;25.48;;;5.80;;
62554;SDS011;48610;52.144;8.624;2024-01-25T15:03:46;23.65;;;6.10;;
62554;SDS011;48610;52.144;8.624;2024-01-25T15:06:47;25.70;;;6.18;;
62554;SDS011;48610;52.144;8.624;2024-01-25T15:09:48;19.73;;;6.22;;
62554;SDS011;48610;52.144;8.624;2024-01-25T15:12:49;19.77;;;5.82;;
62554;SDS011;48610;52.144;8.624;2024-01-25T15:15:53;25.80;;;5.87;;
62554;SDS011;48610;52.144;8.624;2024-01-25T15:18:54;25.30;;;6.85;;
62554;SDS011;48610;52.144;8.624;2024-01-25T15:21:54;24.40;;;5.82;;
62554;SDS011;48610;52.144;8.624;2024-01-25T15:24:55;30.35;;;6.85;;
62554;SDS011;48610;52.144;8.624;2024-01-25T15:27:55;35.50;;;7.63;;
62554;SDS011;48610;52.144;8.624;2024-01-25T15:30:56;33.10;;;7.22;;
62554;SDS011;48610;52.144;8.624;2024-01-25T15:33:57;29.98;;;7.22;;
62554;SDS011;48610;52.144;8.624;2024-01-25T15:36:58;36.85;;;7.72;;
62554;SDS011;48610;52.144;8.624;2024-01-25T15:39:58;31.52;;;7.35;;
62554;SDS011;48610;52.144;8.624;2024-01-25T15:42:59;19.02;;;7.20;;
62554;SDS011;48610;52.144;8.624;2024-01-25T15:46:00;34.97;;;7.97;;
62554;SDS011;48610;52.144;8.624;2024-01-25T15:49:00;23.88;;;7.53;;
62554;SDS011;48610;52.144;8.624;2024-01-25T15:52:01;29.67;;;7.35;;
62554;SDS011;48610;52.144;8.624;2024-01-25T15:55:02;38.30;;;7.55;;
62554;SDS011;48610;52.144;8.624;2024-01-25T15:58:03;29.67;;;8.02;;
62554;SDS011;48610;52.144;8.624;2024-01-25T16:01:04;29.15;;;7.82;;
62554;SDS011;48610;52.144;8.624;2024-01-25T16:04:05;38.35;;;7.90;;
62554;SDS011;48610;52.144;8.624;2024-01-25T16:07:05;21.45;;;6.88;;
62554;SDS011;48610;52.144;8.624;2024-01-25T16:10:06;29.33;;;7.13;;
62554;SDS011;48610;52.144;8.624;2024-01-25T16:13:08;38.33;;;7.90;;
62554;SDS011;48610;52.144;8.624;2024-01-25T16:16:08;27.15;;;7.82;;
62554;SDS011;48610;52.144;8.624;2024-01-25T16:19:09;24.35;;;8.55;;
62554;SDS011;48610;52.144;8.624;2024-01-25T16:22:10;18.08;;;8.00;;
62554;SDS011;48610;52.144;8.624;2024-01-25T16:25:11;23.10;;;8.32;;
62554;SDS011;48610;52.144;8.624;2024-01-25T16:28:11;35.78;;;8.50;;
62554;SDS011;48610;52.144;8.624;2024-01-25T16:31:12;24.00;;;8.23;;
62554;SDS011;48610;52.144;8.624;2024-01-25T16:34:12;20.50;;;6.75;;
62554;SDS011;48610;52.144;8.624;2024-01-25T16:37:13;24.80;;;8.00;;
62554;SDS011;48610;52.144;8.624;2024-01-25T16:40:13;27.98;;;7.50;;
62554;SDS011;48610;52.144;8.624;2024-01-25T16:43:14;22.75;;;7.70;;
62554;SDS011;48610;52.144;8.624;2024-01-25T16:46:15;23.45;;;7.93;;
62554;SDS011;48610;52.144;8.624;2024-01-25T16:49:16;27.23;;;8.05;;
62554;SDS011;48610;52.144;8.624;2024-01-25T16:52:16;31.73;;;7.75;;
62554;SDS011;48610;52.144;8.624;2024-01-25T16:55:17;18.55;;;7.50;;
62554;SDS011;48610;52.144;8.624;2024-01-25T16:58:17;29.48;;;7.82;;
62554;SDS011;48610;52.144;8.624;2024-01-25T17:01:18;25.48;;;7.60;;
62554;SDS011;48610;52.144;8.624;2024-01-25T17:04:18;32.45;;;7.70;;
62554;SDS011;48610;52.144;8.624;2024-01-25T17:07:19;30.85;;;7.18;;
62554;SDS011;48610;52.144;8.624;2024-01-25T17:10:19;25.45;;;7.50;;
62554;SDS011;48610;52.144;8.624;2024-01-25T17:13:20;37.15;;;9.25;;
62554;SDS011;48610;52.144;8.624;2024-01-25T17:16:20;30.27;;;7.35;;
62554;SDS011;48610;52.144;8.624;2024-01-25T17:19:21;31.15;;;7.38;;
62554;SDS011;48610;52.144;8.624;2024-01-25T17:22:21;30.40;;;8.32;;
62554;SDS011;48610;52.144;8.624;2024-01-25T17:25:22;30.77;;;8.38;;
62554;SDS011;48610;52.144;8.624;2024-01-25T17:28:23;27.90;;;7.68;;
62554;SDS011;48610;52.144;8.624;2024-01-25T17:31:24;25.70;;;7.10;;
62554;SDS011;48610;52.144;8.624;2024-01-25T17:34:24;38.47;;;8.45;;
62554;SDS011;48610;52.144;8.624;2024-01-25T17:37:25;29.33;;;7.35;;
62554;SDS011;48610;52.144;8.624;2024-01-25T17:40:26;20.83;;;7.32;;
62554;SDS011;48610;52.144;8.624;2024-01-25T17:43:26;29.05;;;7.28;;
62554;SDS011;48610;52.144;8.624;2024-01-25T17:46:27;32.85;;;8.52;;
62554;SDS011;48610;52.144;8.624;2024-01-25T17:49:28;28.33;;;8.45;;
62554;SDS011;48610;52.144;8.624;2024-01-25T17:52:28;21.75;;;7.78;;
62554;SDS011;48610;52.144;8.624;2024-01-25T17:55:29;19.23;;;7.45;;